sensor_id;sensor_type;location;lat;lon;timestamp;temperature;humidity
72591;SHT31;60625;51.212;5.952;2024-02-04T00:02:48;10.31;92.16
72591;SHT31;60625;51.212;5.952;2024-02-04T00:07:49;10.32;92.13
72591;SHT31;60625;51.212;5.952;2024-02-04T00:12:49;10.33;92.10
72591;SHT31;60625;51.212;5.952;2024-02-04T00:17:49;10.33;92.03
72591;SHT31;60625;51.212;5.952;2024-02-04T00:22:51;10.33;92.03
72591;SHT31;60625;51.212;5.952;2024-02-04T00:27:51;10.34;92.07
72591;SHT31;60625;51.212;5.952;2024-02-04T00:32:52;10.35;92.01
72591;SHT31;60625;51.212;5.952;2024-02-04T00:37:52;10.36;92.00
72591;SHT31;60625;51.212;5.952;2024-02-04T00:42:53;10.35;92.09
72591;SHT31;60625;51.212;5.952;2024-02-04T00:47:53;10.35;92.10
72591;SHT31;60625;51.212;5.952;2024-02-04T00:52:54;10.34;92.18
72591;SHT31;60625;51.212;5.952;2024-02-04T00:57:54;10.34;92.25
72591;SHT31;60625;51.212;5.952;2024-02-04T01:02:55;10.34;92.29
72591;SHT31;60625;51.212;5.952;2024-02-04T01:07:56;10.34;92.30
72591;SHT31;60625;51.212;5.952;2024-02-04T01:12:57;10.35;92.32
72591;SHT31;60625;51.212;5.952;2024-02-04T01:17:57;10.37;92.36
72591;SHT31;60625;51.212;5.952;2024-02-04T01:22:58;10.38;92.42
72591;SHT31;60625;51.212;5.952;2024-02-04T01:27:58;10.39;92.43
72591;SHT31;60625;51.212;5.952;2024-02-04T01:32:59;10.41;92.40
72591;SHT31;60625;51.212;5.952;2024-02-04T01:38:00;10.42;92.40
72591;SHT31;60625;51.212;5.952;2024-02-04T01:43:00;10.43;92.43
72591;SHT31;60625;51.212;5.952;2024-02-04T01:48:01;10.45;92.49
72591;SHT31;60625;51.212;5.952;2024-02-04T01:53:03;10.45;92.51
72591;SHT31;60625;51.212;5.952;2024-02-04T01:58:04;10.47;92.53
72591;SHT31;60625;51.212;5.952;2024-02-04T02:03:05;10.48;92.54
72591;SHT31;60625;51.212;5.952;2024-02-04T02:08:08;10.50;92.50
72591;SHT31;60625;51.212;5.952;2024-02-04T02:13:28;10.50;92.50
72591;SHT31;60625;51.212;5.952;2024-02-04T02:18:35;10.50;92.46
72591;SHT31;60625;51.212;5.952;2024-02-04T02:29:16;10.51;92.42
72591;SHT31;60625;51.212;5.952;2024-02-04T02:34:17;10.52;92.41
72591;SHT31;60625;51.212;5.952;2024-02-04T02:39:18;10.51;92.43
72591;SHT31;60625;51.212;5.952;2024-02-04T02:44:28;10.51;92.42
72591;SHT31;60625;51.212;5.952;2024-02-04T02:49:30;10.52;92.42
72591;SHT31;60625;51.212;5.952;2024-02-04T02:54:30;10.53;92.42
72591;SHT31;60625;51.212;5.952;2024-02-04T02:59:31;10.55;92.43
72591;SHT31;60625;51.212;5.952;2024-02-04T03:04:32;10.57;92.40
72591;SHT31;60625;51.212;5.952;2024-02-04T03:09:33;10.58;92.33
72591;SHT31;60625;51.212;5.952;2024-02-04T03:14:34;10.59;92.27
72591;SHT31;60625;51.212;5.952;2024-02-04T03:19:35;10.59;92.21
72591;SHT31;60625;51.212;5.952;2024-02-04T03:24:36;10.60;92.21
72591;SHT31;60625;51.212;5.952;2024-02-04T03:29:37;10.60;92.20
72591;SHT31;60625;51.212;5.952;2024-02-04T03:34:38;10.62;92.20
72591;SHT31;60625;51.212;5.952;2024-02-04T03:39:40;10.63;92.18
72591;SHT31;60625;51.212;5.952;2024-02-04T03:44:41;10.65;92.15
72591;SHT31;60625;51.212;5.952;2024-02-04T03:49:42;10.65;92.08
72591;SHT31;60625;51.212;5.952;2024-02-04T03:54:43;10.66;92.00
72591;SHT31;60625;51.212;5.952;2024-02-04T03:59:46;10.65;91.94
72591;SHT31;60625;51.212;5.952;2024-02-04T04:04:47;10.65;91.90
72591;SHT31;60625;51.212;5.952;2024-02-04T04:09:48;10.64;91.90
72591;SHT31;60625;51.212;5.952;2024-02-04T04:14:49;10.64;91.85
72591;SHT31;60625;51.212;5.952;2024-02-04T04:19:49;10.63;91.81
72591;SHT31;60625;51.212;5.952;2024-02-04T04:24:50;10.63;91.79
72591;SHT31;60625;51.212;5.952;2024-02-04T04:29:51;10.63;91.72
72591;SHT31;60625;51.212;5.952;2024-02-04T04:34:52;10.63;91.67
72591;SHT31;60625;51.212;5.952;2024-02-04T04:39:54;10.64;91.61
72591;SHT31;60625;51.212;5.952;2024-02-04T04:44:55;10.65;91.52
72591;SHT31;60625;51.212;5.952;2024-02-04T04:49:55;10.65;91.49
72591;SHT31;60625;51.212;5.952;2024-02-04T04:54:55;10.64;91.42
72591;SHT31;60625;51.212;5.952;2024-02-04T04:59:57;10.64;91.46
72591;SHT31;60625;51.212;5.952;2024-02-04T05:05:00;10.65;91.42
72591;SHT31;60625;51.212;5.952;2024-02-04T05:10:01;10.64;91.39
72591;SHT31;60625;51.212;5.952;2024-02-04T05:15:01;10.65;91.31
72591;SHT31;60625;51.212;5.952;2024-02-04T05:20:02;10.66;91.29
72591;SHT31;60625;51.212;5.952;2024-02-04T05:25:04;10.66;91.22
72591;SHT31;60625;51.212;5.952;2024-02-04T05:30:07;10.66;91.19
72591;SHT31;60625;51.212;5.952;2024-02-04T05:35:08;10.66;91.17
72591;SHT31;60625;51.212;5.952;2024-02-04T05:40:09;10.66;91.11
72591;SHT31;60625;51.212;5.952;2024-02-04T05:45:10;10.67;91.09
72591;SHT31;60625;51.212;5.952;2024-02-04T05:50:11;10.67;91.04
72591;SHT31;60625;51.212;5.952;2024-02-04T05:55:12;10.69;91.04
72591;SHT31;60625;51.212;5.952;2024-02-04T06:00:13;10.70;91.01
72591;SHT31;60625;51.212;5.952;2024-02-04T06:05:14;10.71;90.98
72591;SHT31;60625;51.212;5.952;2024-02-04T06:10:15;10.72;90.93
72591;SHT31;60625;51.212;5.952;2024-02-04T06:15:18;10.73;90.90
72591;SHT31;60625;51.212;5.952;2024-02-04T06:20:21;10.73;90.96
72591;SHT31;60625;51.212;5.952;2024-02-04T06:25:21;10.73;91.00
72591;SHT31;60625;51.212;5.952;2024-02-04T06:30:22;10.73;91.10
72591;SHT31;60625;51.212;5.952;2024-02-04T06:35:23;10.72;91.22
72591;SHT31;60625;51.212;5.952;2024-02-04T06:40:23;10.70;91.24
72591;SHT31;60625;51.212;5.952;2024-02-04T06:45:24;10.70;91.32
72591;SHT31;60625;51.212;5.952;2024-02-04T06:50:24;10.68;91.40
72591;SHT31;60625;51.212;5.952;2024-02-04T06:55:25;10.68;91.45
72591;SHT31;60625;51.212;5.952;2024-02-04T07:00:25;10.66;91.50
72591;SHT31;60625;51.212;5.952;2024-02-04T07:05:26;10.65;91.50
72591;SHT31;60625;51.212;5.952;2024-02-04T07:10:26;10.63;91.60
72591;SHT31;60625;51.212;5.952;2024-02-04T07:15:27;10.62;91.60
72591;SHT31;60625;51.212;5.952;2024-02-04T07:20:27;10.62;91.60
72591;SHT31;60625;51.212;5.952;2024-02-04T07:25:28;10.61;91.58
72591;SHT31;60625;51.212;5.952;2024-02-04T07:30:29;10.60;91.66
72591;SHT31;60625;51.212;5.952;2024-02-04T07:35:30;10.60;91.63
72591;SHT31;60625;51.212;5.952;2024-02-04T07:40:30;10.61;91.69
72591;SHT31;60625;51.212;5.952;2024-02-04T07:45:31;10.60;91.71
72591;SHT31;60625;51.212;5.952;2024-02-04T07:50:32;10.61;91.79
72591;SHT31;60625;51.212;5.952;2024-02-04T07:55:32;10.62;91.76
72591;SHT31;60625;51.212;5.952;2024-02-04T08:00:33;10.64;91.71
72591;SHT31;60625;51.212;5.952;2024-02-04T08:05:34;10.66;91.63
72591;SHT31;60625;51.212;5.952;2024-02-04T08:10:37;10.72;91.48
72591;SHT31;60625;51.212;5.952;2024-02-04T08:15:38;10.77;91.32
72591;SHT31;60625;51.212;5.952;2024-02-04T08:20:40;10.81;91.19
72591;SHT31;60625;51.212;5.952;2024-02-04T08:25:40;10.83;91.03
72591;SHT31;60625;51.212;5.952;2024-02-04T08:30:41;10.85;90.92
72591;SHT31;60625;51.212;5.952;2024-02-04T08:35:42;10.88;90.90
72591;SHT31;60625;51.212;5.952;2024-02-04T08:40:47;10.92;90.87
72591;SHT31;60625;51.212;5.952;2024-02-04T08:45:48;10.93;90.75
72591;SHT31;60625;51.212;5.952;2024-02-04T08:50:48;10.97;90.70
72591;SHT31;60625;51.212;5.952;2024-02-04T08:55:49;11.03;90.63
72591;SHT31;60625;51.212;5.952;2024-02-04T09:00:53;11.07;90.57
72591;SHT31;60625;51.212;5.952;2024-02-04T09:05:54;11.11;90.50
72591;SHT31;60625;51.212;5.952;2024-02-04T09:10:55;11.18;90.39
72591;SHT31;60625;51.212;5.952;2024-02-04T09:15:56;11.24;90.18
72591;SHT31;60625;51.212;5.952;2024-02-04T09:20:57;11.30;90.02
72591;SHT31;60625;51.212;5.952;2024-02-04T09:26:01;11.35;89.74
72591;SHT31;60625;51.212;5.952;2024-02-04T09:31:02;11.36;89.68
72591;SHT31;60625;51.212;5.952;2024-02-04T09:36:06;11.31;89.76
72591;SHT31;60625;51.212;5.952;2024-02-04T09:41:07;11.25;89.89
72591;SHT31;60625;51.212;5.952;2024-02-04T09:46:08;11.22;90.00
72591;SHT31;60625;51.212;5.952;2024-02-04T09:51:09;11.21;90.02
72591;SHT31;60625;51.212;5.952;2024-02-04T09:56:10;11.24;89.94
72591;SHT31;60625;51.212;5.952;2024-02-04T10:01:13;11.26;89.98
72591;SHT31;60625;51.212;5.952;2024-02-04T10:06:16;11.29;90.00
72591;SHT31;60625;51.212;5.952;2024-02-04T10:11:17;11.32;89.88
72591;SHT31;60625;51.212;5.952;2024-02-04T10:16:19;11.35;89.79
72591;SHT31;60625;51.212;5.952;2024-02-04T10:21:25;11.36;89.69
72591;SHT31;60625;51.212;5.952;2024-02-04T10:26:29;11.36;89.56
72591;SHT31;60625;51.212;5.952;2024-02-04T10:31:33;11.38;89.42
72591;SHT31;60625;51.212;5.952;2024-02-04T10:36:33;11.44;89.21
72591;SHT31;60625;51.212;5.952;2024-02-04T10:41:34;11.48;89.07
72591;SHT31;60625;51.212;5.952;2024-02-04T10:46:51;11.51;88.99
72591;SHT31;60625;51.212;5.952;2024-02-04T10:51:53;11.49;89.07
72591;SHT31;60625;51.212;5.952;2024-02-04T10:57:00;11.47;89.34
72591;SHT31;60625;51.212;5.952;2024-02-04T11:02:06;11.49;89.63
72591;SHT31;60625;51.212;5.952;2024-02-04T11:07:07;11.53;89.74
72591;SHT31;60625;51.212;5.952;2024-02-04T11:12:11;11.52;89.71
72591;SHT31;60625;51.212;5.952;2024-02-04T11:28:33;11.51;89.57
72591;SHT31;60625;51.212;5.952;2024-02-04T11:33:34;11.52;89.43
72591;SHT31;60625;51.212;5.952;2024-02-04T11:38:37;11.51;89.41
72591;SHT31;60625;51.212;5.952;2024-02-04T11:43:39;11.49;89.50
72591;SHT31;60625;51.212;5.952;2024-02-04T11:48:40;11.49;89.56
72591;SHT31;60625;51.212;5.952;2024-02-04T11:53:40;11.48;89.60
72591;SHT31;60625;51.212;5.952;2024-02-04T11:58:41;11.48;89.77
72591;SHT31;60625;51.212;5.952;2024-02-04T12:03:42;11.47;89.83
72591;SHT31;60625;51.212;5.952;2024-02-04T12:08:43;11.47;89.88
72591;SHT31;60625;51.212;5.952;2024-02-04T12:13:44;11.45;89.90
72591;SHT31;60625;51.212;5.952;2024-02-04T12:18:50;11.45;89.92
72591;SHT31;60625;51.212;5.952;2024-02-04T12:23:52;11.46;89.88
72591;SHT31;60625;51.212;5.952;2024-02-04T12:28:53;11.48;89.80
72591;SHT31;60625;51.212;5.952;2024-02-04T12:33:56;11.54;89.72
72591;SHT31;60625;51.212;5.952;2024-02-04T12:39:04;11.65;89.38
72591;SHT31;60625;51.212;5.952;2024-02-04T12:44:10;11.74;88.99
72591;SHT31;60625;51.212;5.952;2024-02-04T12:49:16;11.83;88.58
72591;SHT31;60625;51.212;5.952;2024-02-04T12:54:23;11.87;88.14
72591;SHT31;60625;51.212;5.952;2024-02-04T12:59:25;11.88;87.74
72591;SHT31;60625;51.212;5.952;2024-02-04T13:04:35;11.87;87.52
72591;SHT31;60625;51.212;5.952;2024-02-04T13:09:37;11.87;87.11
72591;SHT31;60625;51.212;5.952;2024-02-04T13:14:37;11.87;87.00
72591;SHT31;60625;51.212;5.952;2024-02-04T13:19:42;11.86;86.93
72591;SHT31;60625;51.212;5.952;2024-02-04T13:24:43;11.86;86.43
72591;SHT31;60625;51.212;5.952;2024-02-04T13:29:47;11.88;86.50
72591;SHT31;60625;51.212;5.952;2024-02-04T13:34:48;11.88;86.56
72591;SHT31;60625;51.212;5.952;2024-02-04T13:39:49;11.88;86.36
72591;SHT31;60625;51.212;5.952;2024-02-04T13:44:51;11.89;86.37
72591;SHT31;60625;51.212;5.952;2024-02-04T13:49:52;11.93;86.26
72591;SHT31;60625;51.212;5.952;2024-02-04T13:54:52;11.95;86.06
72591;SHT31;60625;51.212;5.952;2024-02-04T13:59:54;11.96;85.99
72591;SHT31;60625;51.212;5.952;2024-02-04T14:04:55;12.00;85.84
72591;SHT31;60625;51.212;5.952;2024-02-04T14:09:57;12.05;85.76
72591;SHT31;60625;51.212;5.952;2024-02-04T14:14:57;12.11;85.68
72591;SHT31;60625;51.212;5.952;2024-02-04T14:19:58;12.13;85.14
72591;SHT31;60625;51.212;5.952;2024-02-04T14:24:59;12.10;85.03
72591;SHT31;60625;51.212;5.952;2024-02-04T14:30:00;12.09;85.07
72591;SHT31;60625;51.212;5.952;2024-02-04T14:35:01;12.07;85.03
72591;SHT31;60625;51.212;5.952;2024-02-04T14:40:05;12.08;84.88
72591;SHT31;60625;51.212;5.952;2024-02-04T14:45:08;12.06;84.76
72591;SHT31;60625;51.212;5.952;2024-02-04T14:50:10;12.04;84.75
72591;SHT31;60625;51.212;5.952;2024-02-04T14:55:13;12.02;84.86
72591;SHT31;60625;51.212;5.952;2024-02-04T15:00:14;12.01;84.94
72591;SHT31;60625;51.212;5.952;2024-02-04T15:05:16;11.99;85.00
72591;SHT31;60625;51.212;5.952;2024-02-04T15:10:18;11.97;84.98
72591;SHT31;60625;51.212;5.952;2024-02-04T15:15:19;11.96;84.94
72591;SHT31;60625;51.212;5.952;2024-02-04T15:20:20;11.95;84.94
72591;SHT31;60625;51.212;5.952;2024-02-04T15:25:23;11.94;84.89
72591;SHT31;60625;51.212;5.952;2024-02-04T15:30:25;11.92;84.84
72591;SHT31;60625;51.212;5.952;2024-02-04T15:35:26;11.91;84.89
72591;SHT31;60625;51.212;5.952;2024-02-04T15:40:27;11.89;85.00
72591;SHT31;60625;51.212;5.952;2024-02-04T15:45:28;11.87;84.92
72591;SHT31;60625;51.212;5.952;2024-02-04T15:50:28;11.86;85.06
72591;SHT31;60625;51.212;5.952;2024-02-04T15:55:29;11.83;85.14
72591;SHT31;60625;51.212;5.952;2024-02-04T16:00:31;11.81;85.22
72591;SHT31;60625;51.212;5.952;2024-02-04T16:05:34;11.78;85.28
72591;SHT31;60625;51.212;5.952;2024-02-04T16:10:35;11.76;85.38
72591;SHT31;60625;51.212;5.952;2024-02-04T16:15:37;11.73;85.40
72591;SHT31;60625;51.212;5.952;2024-02-04T16:20:39;11.70;85.40
72591;SHT31;60625;51.212;5.952;2024-02-04T16:25:40;11.68;85.17
72591;SHT31;60625;51.212;5.952;2024-02-04T16:30:41;11.68;85.00
72591;SHT31;60625;51.212;5.952;2024-02-04T16:35:43;11.67;84.68
72591;SHT31;60625;51.212;5.952;2024-02-04T16:40:43;11.66;84.64
72591;SHT31;60625;51.212;5.952;2024-02-04T16:45:44;11.65;84.64
72591;SHT31;60625;51.212;5.952;2024-02-04T16:50:44;11.64;84.65
72591;SHT31;60625;51.212;5.952;2024-02-04T16:55:47;11.61;84.72
72591;SHT31;60625;51.212;5.952;2024-02-04T17:00:47;11.60;84.81
72591;SHT31;60625;51.212;5.952;2024-02-04T17:05:48;11.60;84.89
72591;SHT31;60625;51.212;5.952;2024-02-04T17:10:50;11.60;84.96
72591;SHT31;60625;51.212;5.952;2024-02-04T17:15:52;11.59;85.13
72591;SHT31;60625;51.212;5.952;2024-02-04T17:20:53;11.58;85.25
72591;SHT31;60625;51.212;5.952;2024-02-04T17:25:58;11.57;85.31
72591;SHT31;60625;51.212;5.952;2024-02-04T17:31:03;11.56;85.40
72591;SHT31;60625;51.212;5.952;2024-02-04T17:36:05;11.55;85.43
72591;SHT31;60625;51.212;5.952;2024-02-04T17:41:06;11.53;85.39
72591;SHT31;60625;51.212;5.952;2024-02-04T17:46:08;11.53;85.42
72591;SHT31;60625;51.212;5.952;2024-02-04T17:51:09;11.51;85.41
72591;SHT31;60625;51.212;5.952;2024-02-04T17:56:15;11.50;85.36
72591;SHT31;60625;51.212;5.952;2024-02-04T18:01:20;11.50;85.29
72591;SHT31;60625;51.212;5.952;2024-02-04T18:06:22;11.50;85.21
72591;SHT31;60625;51.212;5.952;2024-02-04T18:11:22;11.50;85.19
72591;SHT31;60625;51.212;5.952;2024-02-04T18:16:25;11.50;85.33
72591;SHT31;60625;51.212;5.952;2024-02-04T18:21:25;11.49;85.60
72591;SHT31;60625;51.212;5.952;2024-02-04T18:26:30;11.45;85.94
72591;SHT31;60625;51.212;5.952;2024-02-04T18:31:33;11.44;86.14
72591;SHT31;60625;51.212;5.952;2024-02-04T18:36:34;11.42;86.29
72591;SHT31;60625;51.212;5.952;2024-02-04T18:41:34;11.39;86.57
72591;SHT31;60625;51.212;5.952;2024-02-04T18:46:39;11.36;86.90
72591;SHT31;60625;51.212;5.952;2024-02-04T18:51:42;11.31;87.21
72591;SHT31;60625;51.212;5.952;2024-02-04T18:56:43;11.26;87.65
72591;SHT31;60625;51.212;5.952;2024-02-04T19:01:44;11.20;88.09
72591;SHT31;60625;51.212;5.952;2024-02-04T19:06:46;11.13;88.58
72591;SHT31;60625;51.212;5.952;2024-02-04T19:11:48;11.07;88.84
72591;SHT31;60625;51.212;5.952;2024-02-04T19:16:48;11.03;89.20
72591;SHT31;60625;51.212;5.952;2024-02-04T19:21:49;10.98;89.46
72591;SHT31;60625;51.212;5.952;2024-02-04T19:26:50;10.94;89.65
72591;SHT31;60625;51.212;5.952;2024-02-04T19:31:50;10.91;89.99
72591;SHT31;60625;51.212;5.952;2024-02-04T19:36:51;10.88;90.14
72591;SHT31;60625;51.212;5.952;2024-02-04T19:41:52;10.85;90.36
72591;SHT31;60625;51.212;5.952;2024-02-04T19:46:52;10.83;90.58
72591;SHT31;60625;51.212;5.952;2024-02-04T19:51:53;10.82;90.63
72591;SHT31;60625;51.212;5.952;2024-02-04T19:56:54;10.82;90.64
72591;SHT31;60625;51.212;5.952;2024-02-04T20:01:55;10.81;90.75
72591;SHT31;60625;51.212;5.952;2024-02-04T20:06:56;10.81;90.77
72591;SHT31;60625;51.212;5.952;2024-02-04T20:11:57;10.81;90.76
72591;SHT31;60625;51.212;5.952;2024-02-04T20:16:57;10.82;90.64
72591;SHT31;60625;51.212;5.952;2024-02-04T20:21:58;10.84;90.54
72591;SHT31;60625;51.212;5.952;2024-02-04T20:26:59;10.83;90.61
72591;SHT31;60625;51.212;5.952;2024-02-04T20:32:00;10.84;90.60
72591;SHT31;60625;51.212;5.952;2024-02-04T20:37:01;10.84;90.69
72591;SHT31;60625;51.212;5.952;2024-02-04T20:42:02;10.85;90.64
72591;SHT31;60625;51.212;5.952;2024-02-04T20:47:02;10.85;90.56
72591;SHT31;60625;51.212;5.952;2024-02-04T20:52:03;10.87;90.46
72591;SHT31;60625;51.212;5.952;2024-02-04T20:57:04;10.89;90.31
72591;SHT31;60625;51.212;5.952;2024-02-04T21:02:04;10.91;90.13
72591;SHT31;60625;51.212;5.952;2024-02-04T21:07:06;10.92;89.94
72591;SHT31;60625;51.212;5.952;2024-02-04T21:12:06;10.93;89.80
72591;SHT31;60625;51.212;5.952;2024-02-04T21:17:07;10.95;89.67
72591;SHT31;60625;51.212;5.952;2024-02-04T21:22:09;10.95;89.54
72591;SHT31;60625;51.212;5.952;2024-02-04T21:27:10;10.98;89.40
72591;SHT31;60625;51.212;5.952;2024-02-04T21:32:10;11.01;89.23
72591;SHT31;60625;51.212;5.952;2024-02-04T21:37:11;11.03;89.11
72591;SHT31;60625;51.212;5.952;2024-02-04T21:42:12;11.03;89.04
72591;SHT31;60625;51.212;5.952;2024-02-04T21:47:13;11.02;89.00
72591;SHT31;60625;51.212;5.952;2024-02-04T21:52:19;11.03;88.91
72591;SHT31;60625;51.212;5.952;2024-02-04T21:57:19;11.04;88.79
72591;SHT31;60625;51.212;5.952;2024-02-04T22:02:19;11.04;88.71
72591;SHT31;60625;51.212;5.952;2024-02-04T22:07:20;11.05;88.61
72591;SHT31;60625;51.212;5.952;2024-02-04T22:12:21;11.07;88.50
72591;SHT31;60625;51.212;5.952;2024-02-04T22:17:21;11.08;88.44
72591;SHT31;60625;51.212;5.952;2024-02-04T22:22:22;11.07;88.33
72591;SHT31;60625;51.212;5.952;2024-02-04T22:27:24;11.08;88.25
72591;SHT31;60625;51.212;5.952;2024-02-04T22:32:24;11.09;88.10
72591;SHT31;60625;51.212;5.952;2024-02-04T22:37:26;11.11;87.96
72591;SHT31;60625;51.212;5.952;2024-02-04T22:42:26;11.12;87.82
72591;SHT31;60625;51.212;5.952;2024-02-04T22:47:26;11.12;87.75
72591;SHT31;60625;51.212;5.952;2024-02-04T22:52:28;11.13;87.64
72591;SHT31;60625;51.212;5.952;2024-02-04T22:57:30;11.13;87.52
72591;SHT31;60625;51.212;5.952;2024-02-04T23:02:30;11.13;87.44
72591;SHT31;60625;51.212;5.952;2024-02-04T23:07:31;11.14;87.32
72591;SHT31;60625;51.212;5.952;2024-02-04T23:12:32;11.13;87.30
72591;SHT31;60625;51.212;5.952;2024-02-04T23:17:32;11.14;87.29
72591;SHT31;60625;51.212;5.952;2024-02-04T23:22:33;11.14;87.12
72591;SHT31;60625;51.212;5.952;2024-02-04T23:27:33;11.14;87.03
72591;SHT31;60625;51.212;5.952;2024-02-04T23:32:34;11.14;86.82
72591;SHT31;60625;51.212;5.952;2024-02-04T23:37:35;11.15;86.69
72591;SHT31;60625;51.212;5.952;2024-02-04T23:42:35;11.17;86.46
72591;SHT31;60625;51.212;5.952;2024-02-04T23:47:36;11.18;86.35
72591;SHT31;60625;51.212;5.952;2024-02-04T23:52:38;11.20;86.21
72591;SHT31;60625;51.212;5.952;2024-02-04T23:57:39;11.22;85.96
